createdAt,value
2023-04-14T00:00:36.682Z,76.99
2023-04-14T00:03:03.555Z,77.45
2023-04-14T00:05:31.363Z,77.36
2023-04-14T00:07:58.551Z,76.79
2023-04-14T00:10:26.144Z,78.06
2023-04-14T00:12:52.759Z,77.67
2023-04-14T00:15:19.256Z,77.74
2023-04-14T00:17:45.806Z,77.62
2023-04-14T00:20:12.350Z,76.70
2023-04-14T00:22:38.733Z,77.23
2023-04-14T00:25:05.483Z,77.42
2023-04-14T00:27:31.799Z,76.94
2023-04-14T00:29:58.172Z,76.99
2023-04-14T00:32:24.514Z,77.49
2023-04-14T00:34:50.858Z,77.86
2023-04-14T00:37:17.378Z,77.76
2023-04-14T00:39:43.891Z,77.32
2023-04-14T00:42:10.215Z,77.54
2023-04-14T00:44:36.596Z,77.98
2023-04-14T00:47:03.689Z,77.10
2023-04-14T00:49:30.298Z,77.62
2023-04-14T00:51:57.466Z,76.91
2023-04-14T00:54:24.846Z,77.01
2023-04-14T00:56:51.833Z,76.93
2023-04-14T00:59:18.279Z,77.86
2023-04-14T01:01:44.952Z,78.39
2023-04-14T01:04:12.184Z,78.02
2023-04-14T01:06:38.596Z,78.58
2023-04-14T01:09:05.869Z,78.33
2023-04-14T01:12:02.626Z,78.34
2023-04-14T01:14:42.417Z,78.10
2023-04-14T01:17:38.026Z,79.04
2023-04-14T01:20:17.750Z,78.50
2023-04-14T01:22:58.610Z,78.66
2023-04-14T01:26:00.644Z,78.45
2023-04-14T01:28:45.770Z,78.48
2023-04-14T01:31:30.627Z,77.62
2023-04-14T01:34:46.052Z,77.55
2023-04-14T01:37:19.042Z,76.67
2023-04-14T01:39:50.167Z,77.58
2023-04-14T01:42:23.205Z,77.90
2023-04-14T01:44:56.508Z,77.37
2023-04-14T01:47:26.163Z,77.05
2023-04-14T01:49:54.018Z,77.66
2023-04-14T01:52:21.989Z,77.19
2023-04-14T01:54:51.206Z,77.36
2023-04-14T01:57:20.221Z,77.15
2023-04-14T01:59:48.508Z,77.31
2023-04-14T02:02:17.531Z,77.42
2023-04-14T02:04:45.691Z,77.41
2023-04-14T02:07:12.795Z,77.86
2023-04-14T02:09:41.799Z,77.87
2023-04-14T02:12:11.690Z,77.77
2023-04-14T02:14:40.741Z,77.50
2023-04-14T02:17:09.267Z,77.13
2023-04-14T02:19:36.934Z,77.50
2023-04-14T02:22:03.517Z,77.90
2023-04-14T02:24:30.766Z,77.00
2023-04-14T02:27:16.056Z,77.03
2023-04-14T02:29:47.146Z,77.04
2023-04-14T02:32:23.191Z,76.77
2023-04-14T02:34:58.745Z,76.99
2023-04-14T02:37:31.529Z,77.20
2023-04-14T02:40:01.287Z,77.92
2023-04-14T02:42:30.235Z,76.79
2023-04-14T02:45:11.963Z,77.47
2023-04-14T02:47:40.188Z,77.57
2023-04-14T02:50:09.872Z,77.25
2023-04-14T02:52:37.171Z,78.25
2023-04-14T02:55:05.487Z,77.66
2023-04-14T02:57:33.223Z,77.52
2023-04-14T03:00:00.440Z,77.67
2023-04-14T03:02:27.838Z,76.63
2023-04-14T03:04:54.585Z,76.62
2023-04-14T03:07:21.972Z,76.79
2023-04-14T03:09:51.982Z,76.01
2023-04-14T03:12:19.443Z,76.49
2023-04-14T03:14:47.037Z,77.04
2023-04-14T03:17:14.796Z,76.11
2023-04-14T03:19:42.400Z,76.82
2023-04-14T03:22:11.014Z,76.11
2023-04-14T03:24:39.716Z,76.39
2023-04-14T03:27:11.643Z,75.80
2023-04-14T03:29:40.966Z,75.09
2023-04-14T03:32:09.082Z,75.59
2023-04-14T03:34:40.632Z,76.03
2023-04-14T03:37:08.233Z,75.47
2023-04-14T03:39:38.591Z,74.64
2023-04-14T03:42:08.065Z,74.57
2023-04-14T03:44:36.584Z,75.08
2023-04-14T03:47:03.743Z,75.20
2023-04-14T03:49:33.288Z,75.06
2023-04-14T03:52:05.098Z,75.30
2023-04-14T03:54:33.652Z,75.62
2023-04-14T03:57:04.609Z,76.42
2023-04-14T03:59:32.234Z,76.49
2023-04-14T04:02:00.401Z,76.29
2023-04-14T04:04:27.380Z,76.45
2023-04-14T04:06:53.972Z,75.85
2023-04-14T04:09:24.528Z,75.61
2023-04-14T04:11:52.494Z,76.71
2023-04-14T04:14:21.398Z,76.24
2023-04-14T04:16:50.140Z,76.71
2023-04-14T04:19:20.650Z,76.89
2023-04-14T04:21:48.949Z,77.27
2023-04-14T04:24:17.107Z,76.39
2023-04-14T04:26:43.949Z,76.49
2023-04-14T04:29:10.784Z,76.58
2023-04-14T04:31:37.255Z,76.98
2023-04-14T04:34:05.699Z,77.38
2023-04-14T04:36:33.396Z,76.67
2023-04-14T04:38:59.912Z,76.20
2023-04-14T04:41:28.589Z,75.29
2023-04-14T04:43:55.972Z,74.84
2023-04-14T04:46:41.286Z,75.59
2023-04-14T04:49:07.702Z,75.53
2023-04-14T04:51:34.069Z,75.16
2023-04-14T04:54:00.594Z,76.21
2023-04-14T04:56:27.227Z,75.20
2023-04-14T04:58:53.548Z,75.42
2023-04-14T05:01:19.916Z,76.77
2023-04-14T05:03:46.328Z,77.00
2023-04-14T05:06:13.188Z,77.59
2023-04-14T05:08:39.752Z,77.86
2023-04-14T05:11:06.392Z,77.90
2023-04-14T05:13:33.060Z,78.32
2023-04-14T05:16:07.046Z,78.89
2023-04-14T05:18:34.628Z,78.97
2023-04-14T05:21:05.129Z,78.34
2023-04-14T05:23:38.450Z,79.19
2023-04-14T05:26:26.947Z,79.04
2023-04-14T05:28:52.715Z,79.58
2023-04-14T05:31:20.100Z,78.52
2023-04-14T05:33:46.471Z,79.45
2023-04-14T05:36:12.911Z,79.07
2023-04-14T05:38:42.287Z,78.68
2023-04-14T05:41:09.064Z,78.95
2023-04-14T05:43:35.585Z,79.53
2023-04-14T05:46:02.296Z,79.07
2023-04-14T05:48:30.680Z,79.40
2023-04-14T05:50:57.951Z,79.90
2023-04-14T05:53:24.875Z,79.98
2023-04-14T05:55:52.098Z,80.78
2023-04-14T05:58:18.452Z,80.31
2023-04-14T06:00:44.829Z,80.58
2023-04-14T06:03:11.416Z,80.71
2023-04-14T06:05:37.966Z,80.58
2023-04-14T06:08:04.388Z,80.65
2023-04-14T06:10:32.037Z,80.88
2023-04-14T06:12:58.549Z,80.46
2023-04-14T06:15:28.177Z,79.94
2023-04-14T06:17:54.575Z,79.95
2023-04-14T06:20:21.772Z,79.66
2023-04-14T06:22:48.293Z,79.81
2023-04-14T06:25:14.898Z,79.61
2023-04-14T06:27:41.332Z,79.80
2023-04-14T06:30:08.221Z,79.39
2023-04-14T06:32:34.679Z,79.18
2023-04-14T06:35:01.470Z,78.90
2023-04-14T06:37:27.825Z,78.77
2023-04-14T06:39:54.166Z,78.64
2023-04-14T06:42:20.662Z,78.76
2023-04-14T06:44:46.956Z,78.66
2023-04-14T06:47:18.098Z,79.36
2023-04-14T06:49:44.440Z,78.37
2023-04-14T06:52:10.753Z,78.84
2023-04-14T06:54:37.057Z,78.86
2023-04-14T06:57:03.412Z,78.16
2023-04-14T06:59:29.780Z,77.81
2023-04-14T07:01:56.449Z,78.77
2023-04-14T07:04:22.950Z,79.20
2023-04-14T07:06:49.308Z,78.59
2023-04-14T07:09:16.244Z,79.62
2023-04-14T07:11:42.777Z,79.21
2023-04-14T07:14:09.231Z,78.29
2023-04-14T07:16:35.749Z,78.30
2023-04-14T07:19:02.225Z,78.19
2023-04-14T07:21:28.784Z,79.50
2023-04-14T07:23:55.178Z,78.78
2023-04-14T07:26:21.644Z,79.29
2023-04-14T07:28:47.961Z,78.80
2023-04-14T07:31:14.305Z,79.02
2023-04-14T07:33:40.740Z,78.68
2023-04-14T07:36:09.278Z,78.74
2023-04-14T07:38:35.705Z,79.69
2023-04-14T07:41:04.647Z,79.37
2023-04-14T07:43:40.033Z,78.49
2023-04-14T07:46:08.342Z,78.52
2023-04-14T07:48:36.100Z,78.86
2023-04-14T07:51:04.224Z,79.38
2023-04-14T07:53:31.903Z,80.07
2023-04-14T07:55:59.196Z,79.59
2023-04-14T07:58:27.151Z,79.00
2023-04-14T08:00:55.145Z,79.98
2023-04-14T08:03:22.119Z,79.48
2023-04-14T08:05:48.684Z,78.58
2023-04-14T08:08:15.448Z,79.58
2023-04-14T08:10:42.270Z,79.46
2023-04-14T08:13:08.997Z,80.08
2023-04-14T08:15:35.651Z,79.39
2023-04-14T08:18:02.347Z,79.78
2023-04-14T08:20:28.754Z,79.89
2023-04-14T08:22:56.583Z,79.69
2023-04-14T08:25:22.989Z,80.42
2023-04-14T08:27:49.310Z,79.95
2023-04-14T08:30:15.918Z,79.81
2023-04-14T08:32:42.377Z,79.79
2023-04-14T08:35:38.168Z,80.16
2023-04-14T08:37:55.696Z,78.78
2023-04-14T08:40:24.730Z,78.84
2023-04-14T08:42:51.097Z,80.14
2023-04-14T08:45:19.200Z,79.68
2023-04-14T08:47:47.886Z,79.60
2023-04-14T08:50:18.936Z,79.38
2023-04-14T08:52:46.951Z,79.63
2023-04-14T08:55:15.530Z,80.20
2023-04-14T08:57:43.883Z,80.62
2023-04-14T09:00:11.160Z,80.51
2023-04-14T09:02:40.206Z,80.79
2023-04-14T09:05:07.356Z,80.11
2023-04-14T09:07:34.293Z,80.85
2023-04-14T09:10:00.944Z,79.54
2023-04-14T09:12:28.769Z,78.72
2023-04-14T09:14:58.583Z,79.69
2023-04-14T09:17:29.432Z,78.56
2023-04-14T09:20:37.536Z,80.94
2023-04-14T09:22:42.913Z,79.45
2023-04-14T09:25:10.613Z,80.68
2023-04-14T09:27:37.761Z,80.00
2023-04-14T09:30:04.703Z,80.76
2023-04-14T09:32:31.701Z,80.47
2023-04-14T09:34:58.620Z,80.04
2023-04-14T09:37:26.598Z,80.36
2023-04-14T09:39:55.331Z,81.07
2023-04-14T09:42:36.653Z,80.70
2023-04-14T09:45:05.056Z,81.35
2023-04-14T09:47:32.216Z,81.24
2023-04-14T09:50:04.077Z,80.26
2023-04-14T09:52:42.067Z,80.06
2023-04-14T09:55:16.422Z,80.61
2023-04-14T09:57:47.125Z,79.82
2023-04-14T10:00:16.372Z,81.57
2023-04-14T10:02:58.061Z,81.23
2023-04-14T10:05:28.088Z,80.03
2023-04-14T10:07:55.376Z,80.64
2023-04-14T10:10:22.648Z,79.94
2023-04-14T10:12:49.011Z,80.67
2023-04-14T10:15:15.756Z,80.40
2023-04-14T10:17:42.631Z,80.20
2023-04-14T10:20:10.274Z,80.53
2023-04-14T10:22:39.076Z,80.50
2023-04-14T10:25:08.638Z,81.84
2023-04-14T10:27:35.726Z,80.67
2023-04-14T10:30:02.510Z,80.66
2023-04-14T10:32:33.931Z,81.50
2023-04-14T10:35:09.271Z,80.80
2023-04-14T10:37:36.720Z,81.48
2023-04-14T10:40:06.800Z,81.27
2023-04-14T10:42:56.083Z,81.40
2023-04-14T10:45:22.635Z,80.92
2023-04-14T10:47:50.298Z,81.46
2023-04-14T10:50:18.265Z,82.32
2023-04-14T10:52:54.074Z,82.58
2023-04-14T10:55:26.081Z,81.98
2023-04-14T10:57:54.518Z,82.48
2023-04-14T11:00:21.914Z,81.04
2023-04-14T11:03:11.760Z,81.80
2023-04-14T11:06:04.571Z,82.12
2023-04-14T11:08:35.550Z,81.23
2023-04-14T11:11:04.152Z,80.45
2023-04-14T11:13:32.479Z,81.18
2023-04-14T11:16:01.828Z,80.58
2023-04-14T11:18:34.048Z,80.76
2023-04-14T11:21:07.360Z,80.08
2023-04-14T11:23:35.331Z,80.32
2023-04-14T11:26:04.533Z,79.63
2023-04-14T11:28:33.323Z,81.47
2023-04-14T11:31:01.328Z,81.13
2023-04-14T11:33:32.683Z,81.81
2023-04-14T11:35:59.364Z,81.00
2023-04-14T11:38:25.912Z,81.02
2023-04-14T11:40:52.512Z,80.77
2023-04-14T11:43:22.208Z,80.49
2023-04-14T11:45:50.634Z,80.37
2023-04-14T11:48:18.742Z,80.24
2023-04-14T11:50:47.040Z,81.54
2023-04-14T11:53:15.824Z,82.14
2023-04-14T11:55:47.917Z,81.46
2023-04-14T11:58:20.023Z,81.56
2023-04-14T12:00:48.362Z,80.67
2023-04-14T12:03:15.005Z,82.37
2023-04-14T12:05:42.059Z,81.70
2023-04-14T12:10:58.946Z,82.40
2023-04-14T12:13:26.864Z,82.50
2023-04-14T12:15:54.181Z,81.79
2023-04-14T12:18:21.527Z,82.64
2023-04-14T12:21:01.533Z,83.13
2023-04-14T12:23:28.292Z,81.48
2023-04-14T12:25:54.909Z,82.65
2023-04-14T12:28:29.121Z,81.69
2023-04-14T12:30:59.519Z,82.94
2023-04-14T12:33:30.414Z,82.48
2023-04-14T12:36:12.443Z,82.53
2023-04-14T12:38:39.236Z,82.29
2023-04-14T12:41:05.923Z,82.73
2023-04-14T12:43:34.707Z,82.85
2023-04-14T12:46:05.826Z,83.09
2023-04-14T12:48:46.724Z,82.70
2023-04-14T12:51:15.666Z,82.08
2023-04-14T12:53:44.156Z,82.75
2023-04-14T12:56:12.133Z,82.82
2023-04-14T12:58:43.687Z,82.51
2023-04-14T13:01:11.539Z,82.63
2023-04-14T13:03:46.118Z,83.09
2023-04-14T13:06:16.870Z,82.43
2023-04-14T13:08:47.707Z,82.19
2023-04-14T13:11:15.352Z,81.89
2023-04-14T13:13:42.349Z,81.55
2023-04-14T13:16:21.140Z,81.87
2023-04-14T13:18:48.563Z,82.63
2023-04-14T13:21:15.789Z,82.79
2023-04-14T13:23:42.611Z,82.76
2023-04-14T13:26:09.206Z,82.05
2023-04-14T13:28:36.771Z,81.90
2023-04-14T13:31:03.245Z,81.62
2023-04-14T13:33:29.630Z,82.68
2023-04-14T13:35:56.428Z,81.64
2023-04-14T13:38:22.863Z,83.22
2023-04-14T13:40:49.328Z,83.13
2023-04-14T13:43:17.843Z,82.38
2023-04-14T13:45:44.671Z,82.29
2023-04-14T13:48:11.150Z,81.77
2023-04-14T13:50:37.585Z,82.34
2023-04-14T13:53:03.983Z,82.63
2023-04-14T13:55:30.383Z,82.53
2023-04-14T13:57:56.834Z,82.58
2023-04-14T14:00:23.210Z,83.63
2023-04-14T14:02:49.749Z,82.56
2023-04-14T14:05:16.332Z,82.81
2023-04-14T14:07:43.108Z,82.95
2023-04-14T14:10:10.918Z,83.12
2023-04-14T14:12:37.746Z,83.34
2023-04-14T14:15:05.468Z,82.66
2023-04-14T14:17:32.174Z,82.89
2023-04-14T14:19:59.234Z,83.96
2023-04-14T14:22:26.368Z,83.75
2023-04-14T14:24:58.615Z,83.88
2023-04-14T14:27:31.707Z,83.56
2023-04-14T14:29:58.248Z,83.52
2023-04-14T14:32:25.247Z,83.57
2023-04-14T14:34:51.626Z,84.91
2023-04-14T14:37:18.737Z,83.40
2023-04-14T14:39:45.197Z,83.39
2023-04-14T14:42:11.899Z,83.70
2023-04-14T14:44:38.299Z,84.34
2023-04-14T14:47:05.458Z,84.97
2023-04-14T14:49:32.219Z,84.61
2023-04-14T14:51:58.632Z,84.37
2023-04-14T14:54:24.932Z,83.95
2023-04-14T14:56:51.251Z,84.55
2023-04-14T14:59:17.557Z,83.58
2023-04-14T15:01:44.509Z,84.11
2023-04-14T15:04:12.275Z,82.93
2023-04-14T15:06:38.663Z,83.39
2023-04-14T15:09:05.444Z,83.06
2023-04-14T15:11:31.865Z,84.07
2023-04-14T15:13:59.829Z,83.24
2023-04-14T15:16:27.795Z,83.77
2023-04-14T15:18:54.494Z,84.81
2023-04-14T15:21:20.925Z,83.57
2023-04-14T15:23:47.315Z,84.16
2023-04-14T15:26:16.826Z,85.60
2023-04-14T15:28:43.256Z,84.84
2023-04-14T15:31:09.606Z,85.26
2023-04-14T15:33:36.112Z,85.00
2023-04-14T15:36:02.823Z,85.41
2023-04-14T15:38:29.276Z,85.41
2023-04-14T15:40:55.879Z,85.26
2023-04-14T15:43:23.233Z,84.53
2023-04-14T15:45:49.626Z,85.07
2023-04-14T15:48:16.152Z,85.42
2023-04-14T15:50:44.830Z,85.15
2023-04-14T15:53:12.097Z,84.82
2023-04-14T15:55:39.657Z,84.91
2023-04-14T15:58:06.494Z,85.87
2023-04-14T16:00:33.203Z,85.69
2023-04-14T16:03:01.871Z,85.02
2023-04-14T16:05:28.612Z,85.97
2023-04-14T16:07:55.408Z,86.02
2023-04-14T16:10:21.841Z,85.99
2023-04-14T16:12:48.654Z,86.21
2023-04-14T16:15:16.758Z,85.05
2023-04-14T16:17:43.208Z,85.99
2023-04-14T16:20:11.471Z,85.57
2023-04-14T16:22:38.325Z,85.09
2023-04-14T16:25:05.780Z,85.64
2023-04-14T16:27:32.943Z,85.28
2023-04-14T16:29:59.561Z,85.41
2023-04-14T16:32:27.175Z,85.82
2023-04-14T16:34:53.725Z,86.01
2023-04-14T16:37:20.965Z,85.47
2023-04-14T16:39:47.336Z,85.87
2023-04-14T16:42:13.701Z,85.30
2023-04-14T16:44:40.120Z,84.84
2023-04-14T16:47:06.702Z,85.82
2023-04-14T16:49:33.096Z,85.56
2023-04-14T16:52:01.036Z,85.31
2023-04-14T16:54:27.734Z,85.49
2023-04-14T16:56:54.083Z,85.51
2023-04-14T16:59:20.426Z,85.42
2023-04-14T17:01:47.043Z,85.16
2023-04-14T17:04:13.825Z,85.14
2023-04-14T17:06:40.574Z,85.03
2023-04-14T17:09:07.039Z,85.95
2023-04-14T17:11:33.526Z,86.43
2023-04-14T17:14:00.161Z,86.17
2023-04-14T17:16:27.278Z,85.43
2023-04-14T17:18:53.893Z,86.29
2023-04-14T17:21:20.328Z,85.05
2023-04-14T17:23:46.783Z,85.83
2023-04-14T17:26:16.015Z,85.51
2023-04-14T17:28:42.747Z,85.91
2023-04-14T17:31:14.058Z,86.51
2023-04-14T17:33:41.935Z,85.83
2023-04-14T17:36:14.902Z,85.53
2023-04-14T17:38:45.668Z,85.35
2023-04-14T17:41:12.922Z,85.00
2023-04-14T17:43:41.181Z,86.30
2023-04-14T17:46:08.667Z,86.34
2023-04-14T17:48:35.191Z,86.31
2023-04-14T17:51:03.297Z,85.54
2023-04-14T17:53:30.948Z,86.31
2023-04-14T17:55:57.640Z,85.64
2023-04-14T17:58:25.542Z,86.33
2023-04-14T18:00:52.507Z,86.45
2023-04-14T18:03:19.395Z,85.41
2023-04-14T18:05:45.885Z,85.42
2023-04-14T18:08:12.499Z,85.00
2023-04-14T18:10:39.485Z,86.47
2023-04-14T18:13:06.041Z,86.51
2023-04-14T18:15:32.381Z,85.64
2023-04-14T18:17:58.996Z,85.76
2023-04-14T18:20:26.436Z,85.39
2023-04-14T18:22:54.609Z,85.70
2023-04-14T18:25:21.181Z,85.56
2023-04-14T18:30:17.628Z,86.11
2023-04-14T18:32:44.132Z,85.76
2023-04-14T18:35:10.651Z,85.93
2023-04-14T18:37:38.864Z,87.88
2023-04-14T18:40:06.282Z,88.40
2023-04-14T18:42:32.934Z,88.24
2023-04-14T18:44:59.488Z,88.22
2023-04-14T18:47:26.108Z,88.34
2023-04-14T18:49:52.860Z,88.64
2023-04-14T18:52:19.341Z,87.83
2023-04-14T18:54:46.037Z,88.14
2023-04-14T18:57:12.863Z,88.60
2023-04-14T18:59:39.711Z,89.33
2023-04-14T19:02:06.409Z,88.93
2023-04-14T19:04:33.033Z,88.59
2023-04-14T19:06:59.391Z,86.43
2023-04-14T19:09:27.401Z,87.58
2023-04-14T19:11:53.845Z,86.87
2023-04-14T19:14:20.429Z,87.00
2023-04-14T19:16:47.633Z,87.09
2023-04-14T19:19:14.088Z,86.74
2023-04-14T19:21:40.645Z,88.68
2023-04-14T19:24:07.005Z,88.18
2023-04-14T19:26:37.527Z,88.72
2023-04-14T19:29:04.010Z,88.24
2023-04-14T19:31:31.219Z,87.34
2023-04-14T19:33:58.615Z,85.95
2023-04-14T19:36:25.252Z,86.60
2023-04-14T19:38:51.839Z,87.39
2023-04-14T19:41:19.420Z,87.30
2023-04-14T19:43:46.138Z,86.54
2023-04-14T19:46:13.343Z,86.51
2023-04-14T19:48:40.354Z,85.68
2023-04-14T19:51:06.786Z,86.19
2023-04-14T19:53:33.583Z,86.58
2023-04-14T19:56:00.097Z,86.59
2023-04-14T19:58:28.524Z,86.64
2023-04-14T20:00:58.728Z,87.00
2023-04-14T20:03:26.569Z,85.69
2023-04-14T20:05:54.929Z,85.31
2023-04-14T20:08:22.653Z,86.57
2023-04-14T20:10:53.234Z,85.99
2023-04-14T20:13:21.406Z,86.75
2023-04-14T20:15:49.265Z,87.10
2023-04-14T20:18:17.949Z,87.35
2023-04-14T20:20:45.352Z,85.85
2023-04-14T20:23:11.774Z,85.92
2023-04-14T20:25:38.613Z,86.72
2023-04-14T20:28:09.181Z,87.39
2023-04-14T20:30:35.689Z,85.41
2023-04-14T20:33:05.962Z,87.44
2023-04-14T20:35:36.008Z,86.24
2023-04-14T20:38:02.554Z,87.49
2023-04-14T20:40:29.673Z,88.17
2023-04-14T20:42:56.441Z,86.85
2023-04-14T20:45:22.883Z,86.55
2023-04-14T20:47:50.191Z,86.63
2023-04-14T20:50:18.506Z,86.19
2023-04-14T20:52:45.490Z,86.55
2023-04-14T20:55:13.659Z,86.12
2023-04-14T20:57:41.473Z,85.91
2023-04-14T21:00:11.921Z,85.71
2023-04-14T21:02:38.843Z,87.00
2023-04-14T21:05:05.855Z,85.49
2023-04-14T21:07:32.971Z,86.61
2023-04-14T21:09:59.395Z,85.84
2023-04-14T21:12:25.925Z,86.25
2023-04-14T21:15:47.362Z,86.09
2023-04-14T21:17:50.016Z,86.06
2023-04-14T21:20:16.987Z,86.94
2023-04-14T21:22:43.359Z,86.14
2023-04-14T21:25:10.057Z,86.84
2023-04-14T21:27:36.440Z,85.06
2023-04-14T21:30:03.132Z,85.56
2023-04-14T21:32:32.262Z,86.50
2023-04-14T21:34:59.012Z,85.25
2023-04-14T21:37:25.472Z,85.97
2023-04-14T21:39:52.084Z,86.10
2023-04-14T21:42:18.670Z,86.98
2023-04-14T21:44:45.054Z,86.01
2023-04-14T21:47:11.770Z,87.01
2023-04-14T21:49:38.400Z,87.13
2023-04-14T21:52:04.995Z,87.21
2023-04-14T21:54:32.268Z,86.60
2023-04-14T21:56:59.514Z,88.55
2023-04-14T21:59:26.593Z,87.98
2023-04-14T22:01:53.005Z,87.96
2023-04-14T22:04:32.806Z,86.73
2023-04-14T22:07:02.695Z,86.72
2023-04-14T22:09:29.201Z,87.28
2023-04-14T22:11:56.687Z,87.53
2023-04-14T22:14:23.585Z,87.50
2023-04-14T22:16:50.052Z,87.67
2023-04-14T22:19:16.775Z,87.20
2023-04-14T22:21:43.515Z,88.30
2023-04-14T22:24:10.369Z,87.99
2023-04-14T22:26:36.757Z,88.38
2023-04-14T22:29:04.164Z,87.50
2023-04-14T22:31:31.100Z,86.94
2023-04-14T22:33:57.485Z,87.32
2023-04-14T22:36:23.811Z,86.65
2023-04-14T22:38:50.280Z,86.88
2023-04-14T22:41:18.284Z,86.85
2023-04-14T22:43:44.684Z,87.12
2023-04-14T22:46:11.262Z,87.55
2023-04-14T22:48:37.616Z,87.72
2023-04-14T22:51:03.995Z,87.93
2023-04-14T22:53:30.478Z,87.47
2023-04-14T22:55:58.077Z,87.66
2023-04-14T22:58:24.643Z,88.06
2023-04-14T23:00:51.199Z,87.38
2023-04-14T23:03:18.022Z,87.86
2023-04-14T23:05:44.648Z,88.36
2023-04-14T23:08:11.078Z,87.44
2023-04-14T23:10:37.743Z,87.37
2023-04-14T23:13:04.094Z,87.71
2023-04-14T23:15:30.459Z,87.75
2023-04-14T23:17:56.956Z,88.31
2023-04-14T23:20:23.306Z,88.26
2023-04-14T23:22:50.533Z,89.19
2023-04-14T23:25:17.236Z,89.16
2023-04-14T23:27:43.581Z,87.69
2023-04-14T23:30:10.616Z,88.89
2023-04-14T23:32:37.151Z,87.91
2023-04-14T23:35:04.069Z,88.80
2023-04-14T23:37:30.438Z,88.29
2023-04-14T23:39:57.463Z,88.57
2023-04-14T23:42:23.849Z,89.56
2023-04-14T23:44:50.632Z,88.14
2023-04-14T23:47:17.341Z,89.46
2023-04-14T23:49:43.660Z,89.52
2023-04-14T23:52:10.033Z,89.68
2023-04-14T23:54:36.508Z,89.93
2023-04-14T23:57:03.161Z,90.72
2023-04-14T23:59:30.067Z,90.10
